sensor_id;sensor_type;location;lat;lon;timestamp;P1;durP1;ratioP1;P2;durP2;ratioP2
77417;SDS011;66490;51.484;0.026;2023-04-06T00:01:45;35.60;;;18.48;;
77417;SDS011;66490;51.484;0.026;2023-04-06T00:04:30;34.03;;;18.35;;
77417;SDS011;66490;51.484;0.026;2023-04-06T00:07:14;29.73;;;14.43;;
77417;SDS011;66490;51.484;0.026;2023-04-06T00:09:58;30.45;;;15.38;;
77417;SDS011;66490;51.484;0.026;2023-04-06T00:12:45;32.38;;;14.95;;
77417;SDS011;66490;51.484;0.026;2023-04-06T00:15:28;31.85;;;14.18;;
77417;SDS011;66490;51.484;0.026;2023-04-06T00:18:12;27.92;;;14.13;;
77417;SDS011;66490;51.484;0.026;2023-04-06T00:20:56;29.20;;;14.50;;
77417;SDS011;66490;51.484;0.026;2023-04-06T00:23:41;26.90;;;13.98;;
77417;SDS011;66490;51.484;0.026;2023-04-06T00:26:25;31.25;;;14.35;;
77417;SDS011;66490;51.484;0.026;2023-04-06T00:29:09;29.10;;;14.82;;
77417;SDS011;66490;51.484;0.026;2023-04-06T00:31:53;27.08;;;13.75;;
77417;SDS011;66490;51.484;0.026;2023-04-06T00:34:37;26.00;;;13.50;;
77417;SDS011;66490;51.484;0.026;2023-04-06T00:37:21;25.77;;;13.77;;
77417;SDS011;66490;51.484;0.026;2023-04-06T00:40:05;26.10;;;14.48;;
77417;SDS011;66490;51.484;0.026;2023-04-06T00:42:49;26.85;;;13.85;;
77417;SDS011;66490;51.484;0.026;2023-04-06T00:45:34;24.70;;;14.00;;
77417;SDS011;66490;51.484;0.026;2023-04-06T00:48:21;26.23;;;14.13;;
77417;SDS011;66490;51.484;0.026;2023-04-06T00:51:06;23.73;;;13.05;;
77417;SDS011;66490;51.484;0.026;2023-04-06T00:53:50;25.08;;;14.20;;
77417;SDS011;66490;51.484;0.026;2023-04-06T00:56:34;24.77;;;12.02;;
77417;SDS011;66490;51.484;0.026;2023-04-06T00:59:18;25.80;;;12.68;;
77417;SDS011;66490;51.484;0.026;2023-04-06T01:02:02;21.47;;;11.93;;
77417;SDS011;66490;51.484;0.026;2023-04-06T01:04:46;20.45;;;11.23;;
77417;SDS011;66490;51.484;0.026;2023-04-06T01:07:30;19.52;;;11.25;;
77417;SDS011;66490;51.484;0.026;2023-04-06T01:10:24;18.45;;;10.32;;
77417;SDS011;66490;51.484;0.026;2023-04-06T01:13:08;19.17;;;9.93;;
77417;SDS011;66490;51.484;0.026;2023-04-06T01:15:52;18.17;;;10.13;;
77417;SDS011;66490;51.484;0.026;2023-04-06T01:18:37;16.70;;;9.38;;
77417;SDS011;66490;51.484;0.026;2023-04-06T01:21:21;16.35;;;9.45;;
77417;SDS011;66490;51.484;0.026;2023-04-06T01:24:06;16.50;;;9.57;;
77417;SDS011;66490;51.484;0.026;2023-04-06T01:26:50;13.38;;;7.95;;
77417;SDS011;66490;51.484;0.026;2023-04-06T01:29:34;15.10;;;8.13;;
77417;SDS011;66490;51.484;0.026;2023-04-06T01:32:18;13.32;;;7.28;;
77417;SDS011;66490;51.484;0.026;2023-04-06T01:35:02;13.05;;;7.15;;
77417;SDS011;66490;51.484;0.026;2023-04-06T01:37:46;13.82;;;7.97;;
77417;SDS011;66490;51.484;0.026;2023-04-06T01:40:33;11.90;;;7.20;;
77417;SDS011;66490;51.484;0.026;2023-04-06T01:43:17;13.70;;;7.67;;
77417;SDS011;66490;51.484;0.026;2023-04-06T01:46:01;13.07;;;7.03;;
77417;SDS011;66490;51.484;0.026;2023-04-06T01:48:45;11.25;;;6.35;;
77417;SDS011;66490;51.484;0.026;2023-04-06T01:51:29;13.27;;;7.63;;
77417;SDS011;66490;51.484;0.026;2023-04-06T01:54:14;11.45;;;7.07;;
77417;SDS011;66490;51.484;0.026;2023-04-06T01:56:58;12.00;;;7.47;;
77417;SDS011;66490;51.484;0.026;2023-04-06T01:59:42;12.25;;;6.57;;
77417;SDS011;66490;51.484;0.026;2023-04-06T02:02:26;12.13;;;7.30;;
77417;SDS011;66490;51.484;0.026;2023-04-06T02:05:10;11.75;;;6.35;;
77417;SDS011;66490;51.484;0.026;2023-04-06T02:07:54;11.20;;;5.80;;
77417;SDS011;66490;51.484;0.026;2023-04-06T02:10:38;12.97;;;7.73;;
77417;SDS011;66490;51.484;0.026;2023-04-06T02:13:22;12.55;;;6.68;;
77417;SDS011;66490;51.484;0.026;2023-04-06T02:16:06;11.40;;;6.53;;
77417;SDS011;66490;51.484;0.026;2023-04-06T02:18:50;10.68;;;6.70;;
77417;SDS011;66490;51.484;0.026;2023-04-06T02:21:34;13.98;;;7.97;;
77417;SDS011;66490;51.484;0.026;2023-04-06T02:24:18;11.83;;;6.23;;
77417;SDS011;66490;51.484;0.026;2023-04-06T02:27:02;10.88;;;6.13;;
77417;SDS011;66490;51.484;0.026;2023-04-06T02:29:46;12.40;;;6.45;;
77417;SDS011;66490;51.484;0.026;2023-04-06T02:32:30;11.38;;;6.38;;
77417;SDS011;66490;51.484;0.026;2023-04-06T02:35:14;12.38;;;6.93;;
77417;SDS011;66490;51.484;0.026;2023-04-06T02:37:58;11.13;;;6.20;;
77417;SDS011;66490;51.484;0.026;2023-04-06T02:40:42;11.27;;;6.07;;
77417;SDS011;66490;51.484;0.026;2023-04-06T02:43:26;10.70;;;6.15;;
77417;SDS011;66490;51.484;0.026;2023-04-06T02:46:10;12.00;;;5.78;;
77417;SDS011;66490;51.484;0.026;2023-04-06T02:48:54;10.77;;;5.93;;
77417;SDS011;66490;51.484;0.026;2023-04-06T02:51:38;9.13;;;5.37;;
77417;SDS011;66490;51.484;0.026;2023-04-06T02:54:22;11.18;;;5.93;;
77417;SDS011;66490;51.484;0.026;2023-04-06T02:57:07;10.48;;;6.22;;
77417;SDS011;66490;51.484;0.026;2023-04-06T02:59:54;11.70;;;5.90;;
77417;SDS011;66490;51.484;0.026;2023-04-06T03:02:38;10.27;;;5.68;;
77417;SDS011;66490;51.484;0.026;2023-04-06T03:05:22;10.83;;;5.80;;
77417;SDS011;66490;51.484;0.026;2023-04-06T03:08:05;12.00;;;5.97;;
77417;SDS011;66490;51.484;0.026;2023-04-06T03:10:50;12.02;;;6.00;;
77417;SDS011;66490;51.484;0.026;2023-04-06T03:13:34;10.65;;;5.97;;
77417;SDS011;66490;51.484;0.026;2023-04-06T03:16:21;9.50;;;6.18;;
77417;SDS011;66490;51.484;0.026;2023-04-06T03:19:05;10.13;;;5.80;;
77417;SDS011;66490;51.484;0.026;2023-04-06T03:21:49;10.45;;;5.40;;
77417;SDS011;66490;51.484;0.026;2023-04-06T03:24:33;9.35;;;5.63;;
77417;SDS011;66490;51.484;0.026;2023-04-06T03:27:18;9.23;;;5.10;;
77417;SDS011;66490;51.484;0.026;2023-04-06T03:30:02;9.38;;;4.88;;
77417;SDS011;66490;51.484;0.026;2023-04-06T03:32:46;8.90;;;4.47;;
77417;SDS011;66490;51.484;0.026;2023-04-06T03:35:30;10.00;;;5.18;;
77417;SDS011;66490;51.484;0.026;2023-04-06T03:38:14;11.77;;;4.95;;
77417;SDS011;66490;51.484;0.026;2023-04-06T03:40:58;9.85;;;5.30;;
77417;SDS011;66490;51.484;0.026;2023-04-06T03:43:42;10.52;;;5.22;;
77417;SDS011;66490;51.484;0.026;2023-04-06T03:46:26;8.40;;;4.80;;
77417;SDS011;66490;51.484;0.026;2023-04-06T03:49:10;9.25;;;4.63;;
77417;SDS011;66490;51.484;0.026;2023-04-06T03:51:55;9.30;;;4.63;;
77417;SDS011;66490;51.484;0.026;2023-04-06T03:54:40;10.07;;;4.47;;
77417;SDS011;66490;51.484;0.026;2023-04-06T03:57:24;8.35;;;4.72;;
77417;SDS011;66490;51.484;0.026;2023-04-06T04:00:08;7.30;;;4.23;;
77417;SDS011;66490;51.484;0.026;2023-04-06T04:02:53;10.27;;;4.95;;
77417;SDS011;66490;51.484;0.026;2023-04-06T04:05:37;8.63;;;5.10;;
77417;SDS011;66490;51.484;0.026;2023-04-06T04:08:21;8.23;;;4.65;;
77417;SDS011;66490;51.484;0.026;2023-04-06T04:11:05;7.97;;;4.22;;
77417;SDS011;66490;51.484;0.026;2023-04-06T04:13:49;7.63;;;4.70;;
77417;SDS011;66490;51.484;0.026;2023-04-06T04:16:33;7.80;;;4.57;;
77417;SDS011;66490;51.484;0.026;2023-04-06T04:19:17;8.98;;;4.60;;
77417;SDS011;66490;51.484;0.026;2023-04-06T04:22:01;8.20;;;4.63;;
77417;SDS011;66490;51.484;0.026;2023-04-06T04:24:48;8.68;;;5.03;;
77417;SDS011;66490;51.484;0.026;2023-04-06T04:27:32;8.10;;;4.97;;
77417;SDS011;66490;51.484;0.026;2023-04-06T04:30:16;8.63;;;4.82;;
77417;SDS011;66490;51.484;0.026;2023-04-06T04:33:02;9.85;;;6.05;;
77417;SDS011;66490;51.484;0.026;2023-04-06T04:35:46;10.07;;;5.90;;
77417;SDS011;66490;51.484;0.026;2023-04-06T04:38:30;9.13;;;5.43;;
77417;SDS011;66490;51.484;0.026;2023-04-06T04:41:14;11.17;;;5.70;;
77417;SDS011;66490;51.484;0.026;2023-04-06T04:43:58;10.90;;;6.22;;
77417;SDS011;66490;51.484;0.026;2023-04-06T04:46:46;10.15;;;5.78;;
77417;SDS011;66490;51.484;0.026;2023-04-06T04:49:30;10.43;;;6.65;;
77417;SDS011;66490;51.484;0.026;2023-04-06T04:52:13;11.07;;;6.40;;
77417;SDS011;66490;51.484;0.026;2023-04-06T04:54:58;10.63;;;7.00;;
77417;SDS011;66490;51.484;0.026;2023-04-06T04:57:42;15.85;;;8.13;;
77417;SDS011;66490;51.484;0.026;2023-04-06T05:00:26;12.73;;;7.50;;
77417;SDS011;66490;51.484;0.026;2023-04-06T05:03:11;14.25;;;7.20;;
77417;SDS011;66490;51.484;0.026;2023-04-06T05:05:58;11.18;;;6.88;;
77417;SDS011;66490;51.484;0.026;2023-04-06T05:08:42;13.00;;;6.83;;
77417;SDS011;66490;51.484;0.026;2023-04-06T05:11:26;13.20;;;6.43;;
77417;SDS011;66490;51.484;0.026;2023-04-06T05:14:10;12.13;;;7.00;;
77417;SDS011;66490;51.484;0.026;2023-04-06T05:16:54;12.40;;;7.65;;
77417;SDS011;66490;51.484;0.026;2023-04-06T05:19:41;12.02;;;7.22;;
77417;SDS011;66490;51.484;0.026;2023-04-06T05:22:29;12.23;;;7.33;;
77417;SDS011;66490;51.484;0.026;2023-04-06T05:25:13;13.77;;;7.97;;
77417;SDS011;66490;51.484;0.026;2023-04-06T05:27:59;14.80;;;8.25;;
77417;SDS011;66490;51.484;0.026;2023-04-06T05:30:44;12.95;;;7.07;;
77417;SDS011;66490;51.484;0.026;2023-04-06T05:33:28;14.27;;;7.90;;
77417;SDS011;66490;51.484;0.026;2023-04-06T05:36:12;13.93;;;7.10;;
77417;SDS011;66490;51.484;0.026;2023-04-06T05:38:56;15.32;;;8.15;;
77417;SDS011;66490;51.484;0.026;2023-04-06T05:41:40;16.05;;;7.55;;
77417;SDS011;66490;51.484;0.026;2023-04-06T05:44:24;17.88;;;8.90;;
77417;SDS011;66490;51.484;0.026;2023-04-06T05:47:08;15.38;;;8.70;;
77417;SDS011;66490;51.484;0.026;2023-04-06T05:49:52;14.83;;;8.27;;
77417;SDS011;66490;51.484;0.026;2023-04-06T05:52:36;16.35;;;8.63;;
77417;SDS011;66490;51.484;0.026;2023-04-06T05:55:20;17.70;;;9.18;;
77417;SDS011;66490;51.484;0.026;2023-04-06T05:58:04;18.95;;;9.73;;
77417;SDS011;66490;51.484;0.026;2023-04-06T06:00:48;19.90;;;10.52;;
77417;SDS011;66490;51.484;0.026;2023-04-06T06:03:34;19.80;;;9.93;;
77417;SDS011;66490;51.484;0.026;2023-04-06T06:06:18;19.45;;;9.75;;
77417;SDS011;66490;51.484;0.026;2023-04-06T06:09:02;18.20;;;9.02;;
77417;SDS011;66490;51.484;0.026;2023-04-06T06:11:49;20.15;;;10.50;;
77417;SDS011;66490;51.484;0.026;2023-04-06T06:14:34;18.15;;;9.05;;
77417;SDS011;66490;51.484;0.026;2023-04-06T06:17:18;17.47;;;9.20;;
77417;SDS011;66490;51.484;0.026;2023-04-06T06:20:07;19.27;;;9.48;;
77417;SDS011;66490;51.484;0.026;2023-04-06T06:22:51;15.00;;;8.13;;
77417;SDS011;66490;51.484;0.026;2023-04-06T06:25:36;18.17;;;9.45;;
77417;SDS011;66490;51.484;0.026;2023-04-06T06:28:19;18.33;;;9.30;;
77417;SDS011;66490;51.484;0.026;2023-04-06T06:31:03;17.40;;;8.60;;
77417;SDS011;66490;51.484;0.026;2023-04-06T06:33:48;18.25;;;8.40;;
77417;SDS011;66490;51.484;0.026;2023-04-06T06:36:34;16.45;;;8.25;;
77417;SDS011;66490;51.484;0.026;2023-04-06T06:39:18;19.27;;;9.40;;
77417;SDS011;66490;51.484;0.026;2023-04-06T06:42:02;16.80;;;8.80;;
77417;SDS011;66490;51.484;0.026;2023-04-06T06:44:46;15.13;;;7.80;;
77417;SDS011;66490;51.484;0.026;2023-04-06T06:47:30;15.45;;;7.57;;
77417;SDS011;66490;51.484;0.026;2023-04-06T06:50:14;16.08;;;8.18;;
77417;SDS011;66490;51.484;0.026;2023-04-06T06:52:59;16.20;;;7.85;;
77417;SDS011;66490;51.484;0.026;2023-04-06T06:55:43;15.00;;;8.13;;
77417;SDS011;66490;51.484;0.026;2023-04-06T06:58:31;13.43;;;7.37;;
77417;SDS011;66490;51.484;0.026;2023-04-06T07:01:15;12.73;;;6.90;;
77417;SDS011;66490;51.484;0.026;2023-04-06T07:03:59;12.57;;;7.22;;
77417;SDS011;66490;51.484;0.026;2023-04-06T07:06:43;14.63;;;7.82;;
77417;SDS011;66490;51.484;0.026;2023-04-06T07:09:35;12.20;;;7.18;;
77417;SDS011;66490;51.484;0.026;2023-04-06T07:12:19;12.57;;;6.17;;
77417;SDS011;66490;51.484;0.026;2023-04-06T07:15:03;14.20;;;7.20;;
77417;SDS011;66490;51.484;0.026;2023-04-06T07:17:48;12.75;;;7.45;;
77417;SDS011;66490;51.484;0.026;2023-04-06T07:20:33;11.75;;;6.63;;
77417;SDS011;66490;51.484;0.026;2023-04-06T07:23:19;13.10;;;7.10;;
77417;SDS011;66490;51.484;0.026;2023-04-06T07:26:04;11.70;;;6.23;;
77417;SDS011;66490;51.484;0.026;2023-04-06T07:28:51;13.38;;;7.68;;
77417;SDS011;66490;51.484;0.026;2023-04-06T07:31:38;11.85;;;6.72;;
77417;SDS011;66490;51.484;0.026;2023-04-06T07:34:22;10.70;;;5.38;;
77417;SDS011;66490;51.484;0.026;2023-04-06T07:37:06;10.43;;;5.82;;
77417;SDS011;66490;51.484;0.026;2023-04-06T07:39:53;9.63;;;5.97;;
77417;SDS011;66490;51.484;0.026;2023-04-06T07:42:40;10.07;;;5.45;;
77417;SDS011;66490;51.484;0.026;2023-04-06T07:45:27;9.90;;;5.45;;
77417;SDS011;66490;51.484;0.026;2023-04-06T07:48:11;11.25;;;6.07;;
77417;SDS011;66490;51.484;0.026;2023-04-06T07:51:02;8.82;;;4.88;;
77417;SDS011;66490;51.484;0.026;2023-04-06T07:53:52;7.77;;;4.40;;
77417;SDS011;66490;51.484;0.026;2023-04-06T07:56:36;8.57;;;4.80;;
77417;SDS011;66490;51.484;0.026;2023-04-06T07:59:20;8.90;;;3.70;;
77417;SDS011;66490;51.484;0.026;2023-04-06T08:02:04;8.23;;;4.53;;
77417;SDS011;66490;51.484;0.026;2023-04-06T08:04:49;7.25;;;4.05;;
77417;SDS011;66490;51.484;0.026;2023-04-06T08:07:33;7.23;;;3.97;;
77417;SDS011;66490;51.484;0.026;2023-04-06T08:10:17;7.43;;;3.47;;
77417;SDS011;66490;51.484;0.026;2023-04-06T08:13:01;7.43;;;3.80;;
77417;SDS011;66490;51.484;0.026;2023-04-06T08:15:45;7.07;;;3.25;;
77417;SDS011;66490;51.484;0.026;2023-04-06T08:18:29;9.57;;;3.80;;
77417;SDS011;66490;51.484;0.026;2023-04-06T08:21:13;7.80;;;3.80;;
77417;SDS011;66490;51.484;0.026;2023-04-06T08:23:57;8.73;;;3.97;;
77417;SDS011;66490;51.484;0.026;2023-04-06T08:26:41;8.05;;;3.42;;
77417;SDS011;66490;51.484;0.026;2023-04-06T08:29:25;7.47;;;3.58;;
77417;SDS011;66490;51.484;0.026;2023-04-06T08:32:09;7.95;;;3.40;;
77417;SDS011;66490;51.484;0.026;2023-04-06T08:34:54;6.03;;;2.90;;
77417;SDS011;66490;51.484;0.026;2023-04-06T08:37:39;7.20;;;3.05;;
77417;SDS011;66490;51.484;0.026;2023-04-06T08:40:22;5.90;;;2.38;;
77417;SDS011;66490;51.484;0.026;2023-04-06T08:43:09;6.50;;;2.83;;
77417;SDS011;66490;51.484;0.026;2023-04-06T08:45:55;8.52;;;2.55;;
77417;SDS011;66490;51.484;0.026;2023-04-06T08:48:39;12.27;;;3.33;;
77417;SDS011;66490;51.484;0.026;2023-04-06T08:51:24;10.73;;;3.03;;
77417;SDS011;66490;51.484;0.026;2023-04-06T08:54:11;10.82;;;3.22;;
77417;SDS011;66490;51.484;0.026;2023-04-06T08:56:54;9.63;;;2.63;;
77417;SDS011;66490;51.484;0.026;2023-04-06T08:59:40;9.02;;;2.42;;
77417;SDS011;66490;51.484;0.026;2023-04-06T09:02:24;10.13;;;3.10;;
77417;SDS011;66490;51.484;0.026;2023-04-06T09:05:09;11.77;;;2.20;;
77417;SDS011;66490;51.484;0.026;2023-04-06T09:07:59;10.98;;;2.60;;
77417;SDS011;66490;51.484;0.026;2023-04-06T09:10:43;10.13;;;2.58;;
77417;SDS011;66490;51.484;0.026;2023-04-06T09:13:27;10.27;;;1.85;;
77417;SDS011;66490;51.484;0.026;2023-04-06T09:16:11;8.37;;;2.40;;
77417;SDS011;66490;51.484;0.026;2023-04-06T09:19:03;12.30;;;2.63;;
77417;SDS011;66490;51.484;0.026;2023-04-06T09:21:47;9.63;;;2.20;;
77417;SDS011;66490;51.484;0.026;2023-04-06T09:24:50;8.48;;;2.92;;
77417;SDS011;66490;51.484;0.026;2023-04-06T09:27:36;13.43;;;2.83;;
77417;SDS011;66490;51.484;0.026;2023-04-06T09:30:20;10.47;;;4.03;;
77417;SDS011;66490;51.484;0.026;2023-04-06T09:33:04;13.38;;;2.97;;
77417;SDS011;66490;51.484;0.026;2023-04-06T09:35:51;13.13;;;3.00;;
77417;SDS011;66490;51.484;0.026;2023-04-06T09:38:38;9.77;;;2.80;;
77417;SDS011;66490;51.484;0.026;2023-04-06T09:41:29;6.85;;;2.47;;
77417;SDS011;66490;51.484;0.026;2023-04-06T09:44:14;8.27;;;3.23;;
77417;SDS011;66490;51.484;0.026;2023-04-06T09:46:58;9.85;;;3.20;;
77417;SDS011;66490;51.484;0.026;2023-04-06T09:49:42;14.38;;;3.70;;
77417;SDS011;66490;51.484;0.026;2023-04-06T09:52:31;16.90;;;3.55;;
77417;SDS011;66490;51.484;0.026;2023-04-06T09:55:49;6.03;;;2.70;;
77417;SDS011;66490;51.484;0.026;2023-04-06T09:58:28;9.53;;;3.03;;
77417;SDS011;66490;51.484;0.026;2023-04-06T10:01:19;12.30;;;2.55;;
77417;SDS011;66490;51.484;0.026;2023-04-06T10:04:13;11.70;;;2.83;;
77417;SDS011;66490;51.484;0.026;2023-04-06T10:07:00;7.70;;;2.60;;
77417;SDS011;66490;51.484;0.026;2023-04-06T10:09:45;8.45;;;2.50;;
77417;SDS011;66490;51.484;0.026;2023-04-06T10:12:30;9.07;;;2.60;;
77417;SDS011;66490;51.484;0.026;2023-04-06T10:15:15;9.68;;;2.70;;
77417;SDS011;66490;51.484;0.026;2023-04-06T10:18:00;8.07;;;2.45;;
77417;SDS011;66490;51.484;0.026;2023-04-06T10:23:33;8.18;;;2.33;;
77417;SDS011;66490;51.484;0.026;2023-04-06T10:26:21;8.47;;;2.50;;
77417;SDS011;66490;51.484;0.026;2023-04-06T10:29:05;7.00;;;2.17;;
77417;SDS011;66490;51.484;0.026;2023-04-06T10:31:49;7.40;;;2.40;;
77417;SDS011;66490;51.484;0.026;2023-04-06T10:34:36;9.75;;;2.40;;
77417;SDS011;66490;51.484;0.026;2023-04-06T10:37:20;5.25;;;2.42;;
77417;SDS011;66490;51.484;0.026;2023-04-06T10:40:05;6.77;;;2.20;;
77417;SDS011;66490;51.484;0.026;2023-04-06T10:42:49;7.15;;;2.47;;
77417;SDS011;66490;51.484;0.026;2023-04-06T10:45:34;5.65;;;2.05;;
77417;SDS011;66490;51.484;0.026;2023-04-06T10:48:19;8.55;;;2.58;;
77417;SDS011;66490;51.484;0.026;2023-04-06T10:51:06;10.15;;;2.50;;
77417;SDS011;66490;51.484;0.026;2023-04-06T10:53:51;6.27;;;2.50;;
77417;SDS011;66490;51.484;0.026;2023-04-06T10:56:37;7.45;;;2.17;;
77417;SDS011;66490;51.484;0.026;2023-04-06T10:59:22;9.02;;;2.65;;
77417;SDS011;66490;51.484;0.026;2023-04-06T11:02:08;5.68;;;1.70;;
77417;SDS011;66490;51.484;0.026;2023-04-06T11:04:58;6.45;;;1.90;;
77417;SDS011;66490;51.484;0.026;2023-04-06T11:07:43;4.87;;;1.83;;
77417;SDS011;66490;51.484;0.026;2023-04-06T11:10:28;7.80;;;1.95;;
77417;SDS011;66490;51.484;0.026;2023-04-06T11:13:13;6.10;;;2.35;;
77417;SDS011;66490;51.484;0.026;2023-04-06T11:15:57;6.80;;;2.35;;
77417;SDS011;66490;51.484;0.026;2023-04-06T11:24:20;7.80;;;2.33;;
77417;SDS011;66490;51.484;0.026;2023-04-06T11:27:04;5.00;;;1.83;;
77417;SDS011;66490;51.484;0.026;2023-04-06T11:29:49;5.90;;;1.98;;
77417;SDS011;66490;51.484;0.026;2023-04-06T11:32:40;8.57;;;2.60;;
77417;SDS011;66490;51.484;0.026;2023-04-06T11:35:26;7.00;;;2.60;;
77417;SDS011;66490;51.484;0.026;2023-04-06T11:38:10;6.60;;;1.92;;
77417;SDS011;66490;51.484;0.026;2023-04-06T11:40:54;6.65;;;2.30;;
77417;SDS011;66490;51.484;0.026;2023-04-06T11:43:38;7.32;;;1.83;;
77417;SDS011;66490;51.484;0.026;2023-04-06T11:46:21;6.53;;;2.47;;
77417;SDS011;66490;51.484;0.026;2023-04-06T11:49:05;6.70;;;1.97;;
77417;SDS011;66490;51.484;0.026;2023-04-06T11:51:50;3.50;;;1.25;;
77417;SDS011;66490;51.484;0.026;2023-04-06T11:54:35;4.30;;;1.30;;
77417;SDS011;66490;51.484;0.026;2023-04-06T11:57:21;5.90;;;2.22;;
77417;SDS011;66490;51.484;0.026;2023-04-06T12:00:08;6.53;;;2.20;;
77417;SDS011;66490;51.484;0.026;2023-04-06T12:02:53;6.87;;;1.50;;
77417;SDS011;66490;51.484;0.026;2023-04-06T12:05:37;9.00;;;1.85;;
77417;SDS011;66490;51.484;0.026;2023-04-06T12:08:21;5.47;;;1.70;;
77417;SDS011;66490;51.484;0.026;2023-04-06T12:11:08;4.82;;;1.35;;
77417;SDS011;66490;51.484;0.026;2023-04-06T12:13:53;5.13;;;1.95;;
77417;SDS011;66490;51.484;0.026;2023-04-06T12:16:37;4.83;;;1.77;;
77417;SDS011;66490;51.484;0.026;2023-04-06T12:19:24;7.60;;;1.70;;
77417;SDS011;66490;51.484;0.026;2023-04-06T12:22:09;4.95;;;1.73;;
77417;SDS011;66490;51.484;0.026;2023-04-06T12:24:56;6.53;;;2.03;;
77417;SDS011;66490;51.484;0.026;2023-04-06T12:27:40;4.60;;;1.27;;
77417;SDS011;66490;51.484;0.026;2023-04-06T12:30:24;4.93;;;1.13;;
77417;SDS011;66490;51.484;0.026;2023-04-06T12:33:08;4.78;;;1.45;;
77417;SDS011;66490;51.484;0.026;2023-04-06T12:35:52;5.35;;;1.75;;
77417;SDS011;66490;51.484;0.026;2023-04-06T12:38:36;7.55;;;2.05;;
77417;SDS011;66490;51.484;0.026;2023-04-06T12:41:23;3.85;;;1.10;;
77417;SDS011;66490;51.484;0.026;2023-04-06T12:44:10;2.80;;;1.00;;
77417;SDS011;66490;51.484;0.026;2023-04-06T12:46:55;3.40;;;1.17;;
77417;SDS011;66490;51.484;0.026;2023-04-06T12:49:39;3.38;;;1.13;;
77417;SDS011;66490;51.484;0.026;2023-04-06T12:52:23;2.60;;;0.60;;
77417;SDS011;66490;51.484;0.026;2023-04-06T12:55:07;4.13;;;1.08;;
77417;SDS011;66490;51.484;0.026;2023-04-06T12:57:51;4.43;;;1.73;;
77417;SDS011;66490;51.484;0.026;2023-04-06T13:00:35;4.63;;;1.48;;
77417;SDS011;66490;51.484;0.026;2023-04-06T13:03:19;3.53;;;1.40;;
77417;SDS011;66490;51.484;0.026;2023-04-06T13:06:04;3.13;;;1.10;;
77417;SDS011;66490;51.484;0.026;2023-04-06T13:08:48;2.47;;;1.10;;
77417;SDS011;66490;51.484;0.026;2023-04-06T13:11:34;3.37;;;1.00;;
77417;SDS011;66490;51.484;0.026;2023-04-06T13:14:18;5.30;;;0.98;;
77417;SDS011;66490;51.484;0.026;2023-04-06T13:17:04;3.42;;;1.08;;
77417;SDS011;66490;51.484;0.026;2023-04-06T13:19:48;4.93;;;1.13;;
77417;SDS011;66490;51.484;0.026;2023-04-06T13:22:32;5.32;;;1.58;;
77417;SDS011;66490;51.484;0.026;2023-04-06T13:25:16;5.10;;;1.30;;
77417;SDS011;66490;51.484;0.026;2023-04-06T13:28:02;4.30;;;1.42;;
77417;SDS011;66490;51.484;0.026;2023-04-06T13:30:47;2.80;;;1.15;;
77417;SDS011;66490;51.484;0.026;2023-04-06T13:33:32;3.55;;;1.08;;
77417;SDS011;66490;51.484;0.026;2023-04-06T13:36:16;3.90;;;1.35;;
77417;SDS011;66490;51.484;0.026;2023-04-06T13:39:00;5.87;;;1.50;;
77417;SDS011;66490;51.484;0.026;2023-04-06T13:41:46;5.97;;;1.60;;
77417;SDS011;66490;51.484;0.026;2023-04-06T13:44:30;3.55;;;0.95;;
77417;SDS011;66490;51.484;0.026;2023-04-06T13:47:14;3.25;;;1.48;;
77417;SDS011;66490;51.484;0.026;2023-04-06T13:49:59;4.90;;;0.90;;
77417;SDS011;66490;51.484;0.026;2023-04-06T13:52:45;5.27;;;0.83;;
77417;SDS011;66490;51.484;0.026;2023-04-06T13:55:29;2.35;;;0.80;;
77417;SDS011;66490;51.484;0.026;2023-04-06T13:58:14;4.53;;;1.08;;
77417;SDS011;66490;51.484;0.026;2023-04-06T14:01:02;4.70;;;1.15;;
77417;SDS011;66490;51.484;0.026;2023-04-06T14:03:47;4.53;;;1.25;;
77417;SDS011;66490;51.484;0.026;2023-04-06T14:06:32;2.17;;;0.87;;
77417;SDS011;66490;51.484;0.026;2023-04-06T14:09:16;6.05;;;1.45;;
77417;SDS011;66490;51.484;0.026;2023-04-06T14:12:00;4.22;;;1.40;;
77417;SDS011;66490;51.484;0.026;2023-04-06T14:14:44;1.85;;;0.70;;
77417;SDS011;66490;51.484;0.026;2023-04-06T14:17:28;3.47;;;0.63;;
77417;SDS011;66490;51.484;0.026;2023-04-06T14:20:12;6.57;;;1.00;;
77417;SDS011;66490;51.484;0.026;2023-04-06T14:23:01;3.20;;;1.13;;
77417;SDS011;66490;51.484;0.026;2023-04-06T14:25:46;4.07;;;0.88;;
77417;SDS011;66490;51.484;0.026;2023-04-06T14:28:31;2.88;;;1.13;;
77417;SDS011;66490;51.484;0.026;2023-04-06T14:31:15;3.67;;;0.88;;
77417;SDS011;66490;51.484;0.026;2023-04-06T14:34:03;3.20;;;1.57;;
77417;SDS011;66490;51.484;0.026;2023-04-06T14:36:47;3.70;;;0.90;;
77417;SDS011;66490;51.484;0.026;2023-04-06T14:39:31;3.60;;;1.02;;
77417;SDS011;66490;51.484;0.026;2023-04-06T14:42:15;4.35;;;1.20;;
77417;SDS011;66490;51.484;0.026;2023-04-06T14:44:59;3.85;;;0.93;;
77417;SDS011;66490;51.484;0.026;2023-04-06T14:47:43;3.33;;;1.20;;
77417;SDS011;66490;51.484;0.026;2023-04-06T14:50:27;3.22;;;0.77;;
77417;SDS011;66490;51.484;0.026;2023-04-06T14:53:11;5.50;;;1.40;;
77417;SDS011;66490;51.484;0.026;2023-04-06T14:55:55;5.25;;;1.45;;
77417;SDS011;66490;51.484;0.026;2023-04-06T14:58:40;4.57;;;1.10;;
77417;SDS011;66490;51.484;0.026;2023-04-06T15:01:24;4.10;;;0.80;;
77417;SDS011;66490;51.484;0.026;2023-04-06T15:04:08;5.07;;;1.15;;
77417;SDS011;66490;51.484;0.026;2023-04-06T15:06:52;3.80;;;1.02;;
77417;SDS011;66490;51.484;0.026;2023-04-06T15:09:36;4.88;;;1.13;;
77417;SDS011;66490;51.484;0.026;2023-04-06T15:12:20;5.30;;;1.30;;
77417;SDS011;66490;51.484;0.026;2023-04-06T15:15:04;3.33;;;1.20;;
77417;SDS011;66490;51.484;0.026;2023-04-06T15:17:48;6.45;;;1.33;;
77417;SDS011;66490;51.484;0.026;2023-04-06T15:20:32;4.30;;;1.35;;
77417;SDS011;66490;51.484;0.026;2023-04-06T15:23:16;5.68;;;1.13;;
77417;SDS011;66490;51.484;0.026;2023-04-06T15:26:00;2.60;;;0.85;;
77417;SDS011;66490;51.484;0.026;2023-04-06T15:28:44;3.87;;;1.17;;
77417;SDS011;66490;51.484;0.026;2023-04-06T15:31:31;2.97;;;1.30;;
77417;SDS011;66490;51.484;0.026;2023-04-06T15:34:16;2.15;;;0.77;;
77417;SDS011;66490;51.484;0.026;2023-04-06T15:37:01;5.20;;;1.05;;
77417;SDS011;66490;51.484;0.026;2023-04-06T15:39:45;3.80;;;1.15;;
77417;SDS011;66490;51.484;0.026;2023-04-06T15:42:29;2.63;;;1.17;;
77417;SDS011;66490;51.484;0.026;2023-04-06T15:45:13;3.80;;;1.38;;
77417;SDS011;66490;51.484;0.026;2023-04-06T15:47:58;4.32;;;1.00;;
77417;SDS011;66490;51.484;0.026;2023-04-06T15:50:45;4.50;;;1.27;;
77417;SDS011;66490;51.484;0.026;2023-04-06T15:53:29;3.45;;;1.33;;
77417;SDS011;66490;51.484;0.026;2023-04-06T15:56:17;3.70;;;1.33;;
77417;SDS011;66490;51.484;0.026;2023-04-06T15:59:01;3.85;;;1.50;;
77417;SDS011;66490;51.484;0.026;2023-04-06T16:01:46;5.00;;;1.40;;
77417;SDS011;66490;51.484;0.026;2023-04-06T16:04:33;3.75;;;1.15;;
77417;SDS011;66490;51.484;0.026;2023-04-06T16:07:17;3.80;;;1.02;;
77417;SDS011;66490;51.484;0.026;2023-04-06T16:10:01;3.23;;;1.07;;
77417;SDS011;66490;51.484;0.026;2023-04-06T16:12:47;3.70;;;1.20;;
77417;SDS011;66490;51.484;0.026;2023-04-06T16:15:31;3.53;;;1.10;;
77417;SDS011;66490;51.484;0.026;2023-04-06T16:18:15;4.28;;;1.40;;
77417;SDS011;66490;51.484;0.026;2023-04-06T16:21:00;2.75;;;1.20;;
77417;SDS011;66490;51.484;0.026;2023-04-06T16:23:45;4.50;;;1.20;;
77417;SDS011;66490;51.484;0.026;2023-04-06T16:26:29;5.30;;;1.33;;
77417;SDS011;66490;51.484;0.026;2023-04-06T16:29:15;2.63;;;1.00;;
77417;SDS011;66490;51.484;0.026;2023-04-06T16:32:00;6.18;;;1.23;;
77417;SDS011;66490;51.484;0.026;2023-04-06T16:34:44;4.30;;;1.42;;